Terminal Aerodrome Forecast
Issued by NWS

Home | Current Version | Previous Version | Text Only | Print | Product List | Glossary On
Versions: 1 2 3 4 5 6 7 8 9 10 11 12 13 14 15 16 17 18 19 20 21 22 23 24 25 26
000
FTUS45 KCYS 210500
TAFRWL
TAF
KRWL 210523Z 2106/2206 04014KT P6SM SKC
     FM210800 06005KT P6SM SKC
     FM211800 20008KT P6SM SCT150
     FM212300 17011KT P6SM VCTS BKN100CB=

USA.gov is the U.S. government's official web portal to all federal, state and local government web resources and services.